Terminal Aerodrome Forecast
Issued by NWS Charleston, WV

Current Version | Previous Version | Graphics & Text | Print | Product List | Glossary On
Versions: 1 2 3 4 5 6 7 8 9 10 11 12 13 14 15 16 17 18 19 20 21 22 23 24
551
FTUS41 KRLX 201138
TAFBKW
TAF
KBKW 201138Z 2012/2112 VRB02KT 1/4SM FG BKN002
     FM201300 VRB02KT 1SM BR BKN002
     FM201400 VRB02KT 4SM BR SCT006
     FM201500 VRB02KT P6SM FEW250=

USA.gov is the U.S. government's official web portal to all federal, state and local government web resources and services.